Terminal Aerodrome Forecast
Issued by NWS

Home | Current Version | Previous Version | Text Only | Print | Product List | Glossary Off
Versions: 1 2 3 4 5 6 7 8 9 10 11 12 13 14 15 16 17

569
FTUS43 KABR 161125
TAFPIR
TAF
KPIR 161125Z 1612/1712 11016KT P6SM OVC250
     FM161400 14015G23KT P6SM OVC250
     FM170200 15008KT P6SM BKN250
     FM170700 33006KT P6SM BKN100=

USA.gov is the U.S. government's official web portal to all federal, state and local government web resources and services.